DAL250 TNCM-TIST
Flight info
| Callsign | DAL250 |
|---|---|
| Flight time | 0h 31m |
| Altitude | 16000 |
| Route | MODOR2 JUICE B520 STT |
| Aircraft | A320/M-SDE3FGHIRWY/LB1 |
Departure
| Time | 2026-05-06 23:14 |
|---|---|
| Airport | Princess Juliana International Airport (TNCM) |
Arrival
| Time | 2026-05-06 23:46 |
|---|---|
| Airport | Cyril E. King Airport (TIST) |
| Time | Latitude | Longitude | Altitude | Speed | Heading |
|---|---|---|---|---|---|
| 2026-05-06 22:44 | 18.04305 | -63.11497 | 21 ft | 0 kts | 352° |
| 2026-05-06 22:46 | 18.04304 | -63.11497 | 21 ft | 0 kts | 352° |
| 2026-05-06 23:03 | 18.04295 | -63.11496 | 21 ft | 2 kts | 352° |
| 2026-05-06 23:03 | 18.04279 | -63.11493 | 21 ft | 2 kts | 352° |
| 2026-05-06 23:04 | 18.04262 | -63.11491 | 24 ft | 2 kts | 352° |
| 2026-05-06 23:04 | 18.04245 | -63.11488 | 24 ft | 2 kts | 352° |
| 2026-05-06 23:04 | 18.04229 | -63.11486 | 23 ft | 2 kts | 333° |
| 2026-05-06 23:04 | 18.04218 | -63.11474 | 24 ft | 2 kts | 262° |
| 2026-05-06 23:05 | 18.04221 | -63.11462 | 23 ft | 0 kts | 246° |
| 2026-05-06 23:09 | 18.04204 | -63.11491 | 22 ft | 8 kts | 235° |
| 2026-05-06 23:09 | 18.04170 | -63.11536 | 21 ft | 8 kts | 228° |
| 2026-05-06 23:10 | 18.04138 | -63.11576 | 21 ft | 7 kts | 230° |
| 2026-05-06 23:10 | 18.04109 | -63.11614 | 21 ft | 6 kts | 232° |
| 2026-05-06 23:10 | 18.04083 | -63.11650 | 21 ft | 6 kts | 234° |
| 2026-05-06 23:10 | 18.04054 | -63.11745 | 22 ft | 25 kts | 261° |
| 2026-05-06 23:11 | 18.04031 | -63.11888 | 21 ft | 0 kts | 236° |
| 2026-05-06 23:11 | 18.04030 | -63.11896 | 21 ft | 0 kts | 259° |
| 2026-05-06 23:12 | 18.04024 | -63.11909 | 2 ft | 10 kts | 245° |
| 2026-05-06 23:12 | 18.03966 | -63.11934 | 22 ft | 11 kts | 136° |
| 2026-05-06 23:12 | 18.03962 | -63.11862 | 22 ft | 7 kts | 74° |
| 2026-05-06 23:12 | 18.03964 | -63.11832 | 22 ft | 0 kts | 84° |
| 2026-05-06 23:13 | 18.03964 | -63.11827 | 22 ft | 9 kts | 84° |
| 2026-05-06 23:14 | 18.04018 | -63.11485 | 21 ft | 93 kts | 84° |
| 2026-05-06 23:14 | 18.04154 | -63.10478 | 27 ft | 167 kts | 66° |
| 2026-05-06 23:14 | 18.04386 | -63.09388 | 1053 ft | 144 kts | 97° |
| 2026-05-06 23:14 | 18.03910 | -63.08529 | 2117 ft | 144 kts | 139° |
| 2026-05-06 23:15 | 18.02936 | -63.07989 | 2901 ft | 168 kts | 156° |
| 2026-05-06 23:15 | 18.01737 | -63.07708 | 3823 ft | 186 kts | 172° |
| 2026-05-06 23:15 | 18.00398 | -63.07494 | 4332 ft | 205 kts | 167° |
| 2026-05-06 23:15 | 17.98924 | -63.07158 | 4714 ft | 228 kts | 165° |
| 2026-05-06 23:16 | 17.97270 | -63.06901 | 5145 ft | 255 kts | 182° |
| 2026-05-06 23:16 | 17.95537 | -63.07519 | 5848 ft | 274 kts | 214° |
| 2026-05-06 23:16 | 17.94340 | -63.09080 | 6670 ft | 285 kts | 248° |
| 2026-05-06 23:16 | 17.94131 | -63.11143 | 7515 ft | 290 kts | 280° |
| 2026-05-06 23:17 | 17.94666 | -63.13195 | 8479 ft | 291 kts | 289° |
| 2026-05-06 23:17 | 17.95354 | -63.15190 | 9399 ft | 294 kts | 291° |
| 2026-05-06 23:17 | 17.96033 | -63.17012 | 10210 ft | 296 kts | 292° |
| 2026-05-06 23:17 | 17.95808 | -63.16407 | 9939 ft | 296 kts | 292° |
| 2026-05-06 23:18 | 17.96581 | -63.18458 | 10479 ft | 313 kts | 292° |
| 2026-05-06 23:18 | 17.97400 | -63.20670 | 10749 ft | 337 kts | 291° |
| 2026-05-06 23:18 | 17.98254 | -63.23043 | 10961 ft | 360 kts | 291° |
| 2026-05-06 23:18 | 17.99111 | -63.25493 | 11138 ft | 380 kts | 290° |
| 2026-05-06 23:19 | 18.00056 | -63.28242 | 11694 ft | 389 kts | 290° |
| 2026-05-06 23:19 | 18.00963 | -63.30909 | 12322 ft | 393 kts | 290° |
| 2026-05-06 23:19 | 18.01885 | -63.33631 | 12992 ft | 397 kts | 291° |
| 2026-05-06 23:19 | 18.02810 | -63.36365 | 13690 ft | 399 kts | 291° |
| 2026-05-06 23:20 | 18.03739 | -63.39105 | 14280 ft | 402 kts | 291° |
| 2026-05-06 23:20 | 18.04685 | -63.41895 | 14885 ft | 404 kts | 291° |
| 2026-05-06 23:20 | 18.05603 | -63.44598 | 15439 ft | 406 kts | 291° |
| 2026-05-06 23:20 | 18.06524 | -63.47302 | 15895 ft | 408 kts | 291° |
| 2026-05-06 23:21 | 18.07544 | -63.50304 | 16061 ft | 411 kts | 291° |
| 2026-05-06 23:21 | 18.08522 | -63.53185 | 16086 ft | 422 kts | 291° |
| 2026-05-06 23:21 | 18.09512 | -63.56103 | 16086 ft | 425 kts | 291° |
| 2026-05-06 23:21 | 18.10509 | -63.59047 | 16087 ft | 427 kts | 291° |
| 2026-05-06 23:22 | 18.11507 | -63.61987 | 16081 ft | 428 kts | 290° |
| 2026-05-06 23:22 | 18.12513 | -63.64942 | 16084 ft | 429 kts | 290° |
| 2026-05-06 23:22 | 18.13313 | -63.67966 | 16085 ft | 430 kts | 282° |
| 2026-05-06 23:22 | 18.13830 | -63.71049 | 15911 ft | 429 kts | 282° |
| 2026-05-06 23:23 | 18.14350 | -63.74150 | 15791 ft | 428 kts | 282° |
| 2026-05-06 23:23 | 18.14870 | -63.77219 | 15672 ft | 427 kts | 281° |
| 2026-05-06 23:23 | 18.15388 | -63.80281 | 15550 ft | 426 kts | 281° |
| 2026-05-06 23:23 | 18.15909 | -63.83369 | 15432 ft | 426 kts | 282° |
| 2026-05-06 23:24 | 18.16425 | -63.86426 | 15308 ft | 426 kts | 281° |
| 2026-05-06 23:24 | 18.16937 | -63.89455 | 15198 ft | 426 kts | 281° |
| 2026-05-06 23:24 | 18.17453 | -63.92528 | 15080 ft | 425 kts | 281° |
| 2026-05-06 23:24 | 18.17966 | -63.95577 | 14961 ft | 425 kts | 281° |
| 2026-05-06 23:25 | 18.18482 | -63.98642 | 14841 ft | 423 kts | 282° |
| 2026-05-06 23:25 | 18.18992 | -64.01683 | 14731 ft | 422 kts | 281° |
| 2026-05-06 23:25 | 18.19500 | -64.04731 | 14615 ft | 422 kts | 281° |
| 2026-05-06 23:25 | 18.20007 | -64.07776 | 14499 ft | 422 kts | 281° |
| 2026-05-06 23:26 | 18.20514 | -64.10814 | 14385 ft | 421 kts | 281° |
| 2026-05-06 23:26 | 18.21003 | -64.13753 | 14268 ft | 421 kts | 281° |
| 2026-05-06 23:26 | 18.21512 | -64.16811 | 14159 ft | 414 kts | 281° |
| 2026-05-06 23:26 | 18.22006 | -64.19779 | 14037 ft | 394 kts | 281° |
| 2026-05-06 23:27 | 18.22471 | -64.22585 | 13661 ft | 384 kts | 281° |
| 2026-05-06 23:27 | 18.22926 | -64.25321 | 13262 ft | 376 kts | 281° |
| 2026-05-06 23:27 | 18.23377 | -64.27980 | 12869 ft | 371 kts | 281° |
| 2026-05-06 23:27 | 18.23801 | -64.30626 | 12470 ft | 363 kts | 276° |
| 2026-05-06 23:28 | 18.23791 | -64.32412 | 12198 ft | 361 kts | 266° |
| 2026-05-06 23:28 | 18.23581 | -64.35038 | 11810 ft | 359 kts | 266° |
| 2026-05-06 23:28 | 18.23302 | -64.38479 | 11351 ft | 351 kts | 265° |
| 2026-05-06 23:28 | 18.23167 | -64.40092 | 11173 ft | 345 kts | 265° |
| 2026-05-06 23:29 | 18.22959 | -64.42567 | 10885 ft | 336 kts | 265° |
| 2026-05-06 23:29 | 18.22703 | -64.45755 | 10517 ft | 326 kts | 265° |
| 2026-05-06 23:29 | 18.22578 | -64.47358 | 10329 ft | 321 kts | 265° |
| 2026-05-06 23:29 | 18.22400 | -64.49681 | 10059 ft | 315 kts | 265° |
| 2026-05-06 23:30 | 18.22232 | -64.51956 | 9771 ft | 309 kts | 266° |
| 2026-05-06 23:30 | 18.22072 | -64.54161 | 9468 ft | 304 kts | 265° |
| 2026-05-06 23:30 | 18.21918 | -64.56357 | 9168 ft | 299 kts | 265° |
| 2026-05-06 23:30 | 18.21772 | -64.58523 | 8871 ft | 296 kts | 265° |
| 2026-05-06 23:31 | 18.21632 | -64.60671 | 8571 ft | 293 kts | 265° |
| 2026-05-06 23:31 | 18.21498 | -64.62809 | 8281 ft | 293 kts | 266° |
| 2026-05-06 23:31 | 18.21368 | -64.64935 | 7993 ft | 291 kts | 266° |
| 2026-05-06 23:31 | 18.21242 | -64.67058 | 7703 ft | 290 kts | 265° |
| 2026-05-06 23:32 | 18.21125 | -64.69189 | 7418 ft | 293 kts | 265° |
| 2026-05-06 23:32 | 18.21011 | -64.71334 | 7137 ft | 294 kts | 266° |
| 2026-05-06 23:32 | 18.20905 | -64.73482 | 6852 ft | 294 kts | 265° |
| 2026-05-06 23:32 | 18.20806 | -64.75627 | 6574 ft | 292 kts | 266° |
| 2026-05-06 23:33 | 18.20710 | -64.77756 | 6279 ft | 292 kts | 266° |
| 2026-05-06 23:33 | 18.20614 | -64.79879 | 5987 ft | 290 kts | 266° |
| 2026-05-06 23:33 | 18.20508 | -64.81987 | 5702 ft | 287 kts | 265° |
| 2026-05-06 23:33 | 18.20407 | -64.84093 | 5400 ft | 288 kts | 265° |
| 2026-05-06 23:34 | 18.20309 | -64.86190 | 5114 ft | 287 kts | 266° |
| 2026-05-06 23:34 | 18.20215 | -64.88289 | 4823 ft | 288 kts | 266° |
| 2026-05-06 23:34 | 18.20118 | -64.90389 | 4526 ft | 286 kts | 265° |
| 2026-05-06 23:34 | 18.20015 | -64.92446 | 4232 ft | 284 kts | 266° |
| 2026-05-06 23:35 | 18.19909 | -64.94526 | 4026 ft | 284 kts | 266° |
| 2026-05-06 23:35 | 18.19803 | -64.96596 | 3994 ft | 284 kts | 266° |
| 2026-05-06 23:35 | 18.19693 | -64.98668 | 3998 ft | 283 kts | 266° |
| 2026-05-06 23:35 | 18.19588 | -65.00736 | 3996 ft | 282 kts | 266° |
| 2026-05-06 23:36 | 18.19485 | -65.02799 | 3999 ft | 283 kts | 266° |
| 2026-05-06 23:36 | 18.19388 | -65.04870 | 4008 ft | 284 kts | 266° |
| 2026-05-06 23:36 | 18.19288 | -65.06937 | 3880 ft | 281 kts | 266° |
| 2026-05-06 23:36 | 18.19184 | -65.08987 | 3701 ft | 281 kts | 266° |
| 2026-05-06 23:37 | 18.19085 | -65.11045 | 3552 ft | 281 kts | 266° |
| 2026-05-06 23:37 | 18.18983 | -65.13093 | 3408 ft | 280 kts | 266° |
| 2026-05-06 23:37 | 18.18882 | -65.15134 | 3263 ft | 275 kts | 266° |
| 2026-05-06 23:37 | 18.18787 | -65.17101 | 3123 ft | 266 kts | 266° |
| 2026-05-06 23:38 | 18.18693 | -65.19043 | 3005 ft | 265 kts | 266° |
| 2026-05-06 23:38 | 18.18612 | -65.20894 | 2990 ft | 248 kts | 267° |
| 2026-05-06 23:38 | 18.18609 | -65.22650 | 2991 ft | 236 kts | 279° |
| 2026-05-06 23:38 | 18.19280 | -65.24174 | 2993 ft | 230 kts | 314° |
| 2026-05-06 23:39 | 18.20611 | -65.25052 | 3011 ft | 228 kts | 346° |
| 2026-05-06 23:39 | 18.22168 | -65.25353 | 3004 ft | 228 kts | 355° |
| 2026-05-06 23:39 | 18.23742 | -65.25550 | 3000 ft | 228 kts | 356° |
| 2026-05-06 23:39 | 18.25322 | -65.25733 | 2998 ft | 229 kts | 355° |
| 2026-05-06 23:40 | 18.26906 | -65.25848 | 2996 ft | 227 kts | 8° |
| 2026-05-06 23:40 | 18.28328 | -65.25244 | 2995 ft | 220 kts | 44° |
| 2026-05-06 23:40 | 18.29352 | -65.24058 | 3004 ft | 219 kts | 54° |
| 2026-05-06 23:40 | 18.30267 | -65.22786 | 3007 ft | 218 kts | 56° |
| 2026-05-06 23:41 | 18.31164 | -65.21497 | 3004 ft | 219 kts | 56° |
| 2026-05-06 23:41 | 18.32056 | -65.20206 | 3009 ft | 219 kts | 56° |
| 2026-05-06 23:41 | 18.32735 | -65.18796 | 3004 ft | 215 kts | 77° |
| 2026-05-06 23:41 | 18.32874 | -65.17253 | 3006 ft | 216 kts | 88° |
| 2026-05-06 23:42 | 18.32938 | -65.15687 | 3011 ft | 210 kts | 89° |
| 2026-05-06 23:42 | 18.33002 | -65.14169 | 2850 ft | 205 kts | 89° |
| 2026-05-06 23:42 | 18.33067 | -65.12668 | 2609 ft | 204 kts | 88° |
| 2026-05-06 23:42 | 18.33131 | -65.11210 | 2352 ft | 194 kts | 89° |
| 2026-05-06 23:43 | 18.33191 | -65.09830 | 2114 ft | 183 kts | 88° |
| 2026-05-06 23:43 | 18.33248 | -65.08525 | 1886 ft | 174 kts | 89° |
| 2026-05-06 23:43 | 18.33302 | -65.07286 | 1679 ft | 164 kts | 89° |
| 2026-05-06 23:43 | 18.33352 | -65.06125 | 1466 ft | 154 kts | 87° |
| 2026-05-06 23:44 | 18.33399 | -65.05036 | 1310 ft | 144 kts | 88° |
| 2026-05-06 23:44 | 18.33434 | -65.04027 | 1109 ft | 135 kts | 89° |
| 2026-05-06 23:44 | 18.33455 | -65.03041 | 899 ft | 136 kts | 88° |
| 2026-05-06 23:44 | 18.33512 | -65.02048 | 725 ft | 134 kts | 88° |
| 2026-05-06 23:45 | 18.33553 | -65.01092 | 535 ft | 129 kts | 88° |
| 2026-05-06 23:45 | 18.33601 | -65.00158 | 358 ft | 129 kts | 89° |
| 2026-05-06 23:45 | 18.33648 | -64.99208 | 238 ft | 134 kts | 90° |
| 2026-05-06 23:45 | 18.33693 | -64.98245 | 58 ft | 129 kts | 90° |
| 2026-05-06 23:46 | 18.33724 | -64.97429 | 28 ft | 86 kts | 87° |
| 2026-05-06 23:46 | 18.33746 | -64.96952 | 24 ft | 49 kts | 87° |
| 2026-05-06 23:46 | 18.33748 | -64.96706 | 21 ft | 18 kts | 116° |
| 2026-05-06 23:46 | 18.33690 | -64.96681 | 24 ft | 0 kts | 191° |
| 2026-05-06 23:47 | 18.33689 | -64.96682 | 24 ft | 1 kts | 193° |
| 2026-05-06 23:47 | 18.33672 | -64.96739 | 25 ft | 16 kts | 266° |
| 2026-05-06 23:47 | 18.33668 | -64.96841 | 25 ft | 12 kts | 267° |
| 2026-05-06 23:47 | 18.33664 | -64.96926 | 26 ft | 18 kts | 266° |
| 2026-05-06 23:48 | 18.33658 | -64.97039 | 26 ft | 12 kts | 266° |
| 2026-05-06 23:48 | 18.33653 | -64.97112 | 27 ft | 8 kts | 266° |
| 2026-05-06 23:48 | 18.33629 | -64.97155 | 27 ft | 6 kts | 249° |
| 2026-05-06 23:48 | 18.33615 | -64.97194 | 27 ft | 5 kts | 238° |
| 2026-05-06 23:49 | 18.33587 | -64.97204 | 27 ft | 4 kts | 185° |
| 2026-05-06 23:49 | 18.33566 | -64.97203 | 27 ft | 2 kts | 177° |
| 2026-05-06 23:49 | 18.33560 | -64.97203 | 27 ft | 0 kts | 178° |
| 2026-05-06 23:49 | 18.33556 | -64.97203 | 27 ft | 0 kts | 178° |